createdAt,value
2018-12-07T00:00:08.291Z,1.80
2018-12-07T00:01:08.243Z,1.70
2018-12-07T00:02:08.234Z,1.70
2018-12-07T00:03:08.224Z,1.70
2018-12-07T00:04:08.214Z,1.60
2018-12-07T00:05:08.196Z,1.70
2018-12-07T00:06:08.232Z,1.60
2018-12-07T00:07:08.214Z,2.10
2018-12-07T00:08:08.166Z,1.90
2018-12-07T00:09:08.152Z,1.90
2018-12-07T00:10:08.142Z,1.90
2018-12-07T00:11:08.131Z,1.80
2018-12-07T00:12:08.124Z,1.90
2018-12-07T00:13:08.152Z,1.80
2018-12-07T00:14:08.135Z,2.10
2018-12-07T00:15:08.091Z,1.90
2018-12-07T00:16:08.075Z,1.90
2018-12-07T00:17:08.111Z,2.00
2018-12-07T00:18:08.051Z,1.80
2018-12-07T00:19:08.046Z,2.30
2018-12-07T00:20:08.069Z,1.70
2018-12-07T00:21:08.061Z,2.00
2018-12-07T00:22:08.012Z,1.80
2018-12-07T00:23:07.997Z,1.80
2018-12-07T00:24:07.991Z,2.30
2018-12-07T00:25:07.977Z,1.70
2018-12-07T00:26:07.966Z,1.90
2018-12-07T00:27:07.993Z,1.90
2018-12-07T00:28:07.944Z,1.80
2018-12-07T00:29:07.933Z,1.60
2018-12-07T00:30:07.923Z,1.80
2018-12-07T00:31:07.915Z,1.90
2018-12-07T00:32:07.900Z,1.50
2018-12-07T00:33:07.925Z,1.60
2018-12-07T00:34:07.874Z,1.70
2018-12-07T00:35:07.869Z,2.00
2018-12-07T00:36:07.859Z,1.80
2018-12-07T00:37:07.885Z,1.80
2018-12-07T00:38:07.835Z,1.60
2018-12-07T00:39:07.823Z,1.40
2018-12-07T00:40:07.813Z,1.70
2018-12-07T00:41:07.798Z,1.40
2018-12-07T00:42:07.791Z,1.00
2018-12-07T00:43:07.815Z,1.00
2018-12-07T00:44:07.764Z,1.30
2018-12-07T00:45:07.754Z,1.30
2018-12-07T00:46:07.741Z,1.30
2018-12-07T00:47:07.735Z,1.30
2018-12-07T00:48:07.761Z,1.50
2018-12-07T00:49:07.710Z,1.00
2018-12-07T00:50:07.699Z,0.80
2018-12-07T00:51:07.689Z,1.00
2018-12-07T00:52:07.677Z,1.50
2018-12-07T00:53:07.708Z,1.40
2018-12-07T00:54:07.652Z,1.10
2018-12-07T00:55:07.642Z,0.90
2018-12-07T00:56:07.631Z,0.80
2018-12-07T00:57:07.621Z,0.60
2018-12-07T00:58:07.617Z,0.60
2018-12-07T00:59:07.637Z,0.60
2018-12-07T01:00:07.587Z,0.60
2018-12-07T01:01:07.617Z,0.60
2018-12-07T01:02:07.565Z,0.50
2018-12-07T01:03:07.553Z,0.60
2018-12-07T01:04:07.542Z,0.40
2018-12-07T01:05:07.535Z,0.40
2018-12-07T01:06:07.527Z,0.50
2018-12-07T01:07:07.685Z,0.50
2018-12-07T01:08:07.541Z,0.50
2018-12-07T01:09:07.501Z,0.50
2018-12-07T01:10:07.477Z,0.50
2018-12-07T01:11:07.503Z,0.40
2018-12-07T01:12:07.496Z,0.60
2018-12-07T01:13:07.448Z,0.50
2018-12-07T01:14:07.472Z,0.50
2018-12-07T01:15:07.420Z,0.40
2018-12-07T01:16:07.453Z,0.50
2018-12-07T01:17:07.398Z,0.40
2018-12-07T01:18:07.389Z,0.40
2018-12-07T01:19:07.421Z,0.40
2018-12-07T01:20:07.369Z,0.40
2018-12-07T01:21:07.357Z,0.50
2018-12-07T01:22:07.342Z,0.40
2018-12-07T01:23:07.333Z,0.40
2018-12-07T01:24:07.321Z,0.60
2018-12-07T01:25:07.348Z,0.40
2018-12-07T01:26:07.302Z,0.40
2018-12-07T01:27:07.288Z,0.70
2018-12-07T01:28:07.276Z,0.30
2018-12-07T01:29:07.266Z,0.40
2018-12-07T01:30:07.298Z,0.40
2018-12-07T01:31:07.242Z,0.50
2018-12-07T01:32:07.233Z,0.50
2018-12-07T01:33:07.225Z,0.50
2018-12-07T01:34:07.216Z,0.40
2018-12-07T01:35:07.201Z,0.40
2018-12-07T01:36:07.232Z,0.50
2018-12-07T01:37:07.181Z,0.50
2018-12-07T01:38:07.168Z,0.60
2018-12-07T01:39:07.194Z,0.40
2018-12-07T01:40:07.185Z,0.50
2018-12-07T01:41:07.134Z,0.40
2018-12-07T01:42:07.122Z,0.50
2018-12-07T01:43:07.112Z,0.50
2018-12-07T01:44:07.101Z,0.40
2018-12-07T01:45:07.196Z,0.50
2018-12-07T01:46:07.078Z,0.50
2018-12-07T01:47:07.075Z,0.40
2018-12-07T01:48:07.057Z,0.50
2018-12-07T01:49:07.045Z,0.50
2018-12-07T01:50:07.038Z,0.30
2018-12-07T01:51:07.062Z,0.30
2018-12-07T01:52:07.011Z,0.30
2018-12-07T01:53:07.000Z,0.40
2018-12-07T01:54:06.990Z,0.30
2018-12-07T01:55:06.980Z,0.40
2018-12-07T01:56:07.247Z,0.50
2018-12-07T01:57:06.956Z,0.50
2018-12-07T01:58:06.947Z,0.40
2018-12-07T01:59:06.935Z,0.40
2018-12-07T02:00:06.924Z,0.50
2018-12-07T02:01:06.911Z,0.30
2018-12-07T02:02:06.943Z,0.40
2018-12-07T02:03:06.887Z,0.50
2018-12-07T02:04:06.879Z,0.50
2018-12-07T02:05:06.907Z,0.30
2018-12-07T02:06:06.858Z,0.30
2018-12-07T02:07:06.846Z,0.50
2018-12-07T02:08:06.881Z,0.40
2018-12-07T02:09:06.824Z,0.40
2018-12-07T02:10:06.822Z,0.40
2018-12-07T02:11:06.801Z,0.40
2018-12-07T02:12:06.803Z,0.40
2018-12-07T02:13:06.783Z,0.40
2018-12-07T02:14:06.812Z,0.40
2018-12-07T02:15:06.799Z,0.30
2018-12-07T02:16:06.748Z,0.30
2018-12-07T02:17:06.774Z,0.50
2018-12-07T02:18:06.725Z,0.40
2018-12-07T02:19:06.752Z,0.40
2018-12-07T02:20:06.701Z,0.40
2018-12-07T02:21:06.690Z,0.50
2018-12-07T02:22:06.680Z,0.30
2018-12-07T02:23:06.668Z,0.40
2018-12-07T02:24:06.657Z,0.40
2018-12-07T02:25:06.689Z,0.50
2018-12-07T02:26:06.635Z,0.60
2018-12-07T02:27:06.662Z,0.40
2018-12-07T02:28:06.614Z,0.40
2018-12-07T02:29:06.604Z,0.40
2018-12-07T02:30:06.599Z,0.30
2018-12-07T02:31:06.685Z,0.30
2018-12-07T02:32:06.571Z,0.40
2018-12-07T02:33:06.564Z,0.40
2018-12-07T02:34:06.548Z,0.30
2018-12-07T02:35:06.585Z,0.30
2018-12-07T02:36:06.524Z,0.40
2018-12-07T02:37:06.697Z,0.40
2018-12-07T02:38:06.511Z,0.30
2018-12-07T02:39:06.492Z,0.50
2018-12-07T02:40:06.484Z,0.40
2018-12-07T02:41:06.474Z,0.50
2018-12-07T02:42:06.458Z,0.30
2018-12-07T02:43:06.490Z,0.40
2018-12-07T02:44:06.436Z,0.40
2018-12-07T02:45:06.423Z,0.60
2018-12-07T02:46:06.417Z,0.40
2018-12-07T02:47:06.407Z,0.60
2018-12-07T02:48:06.396Z,0.70
2018-12-07T02:49:06.661Z,0.60
2018-12-07T02:50:06.376Z,0.50
2018-12-07T02:51:06.442Z,0.60
2018-12-07T02:52:06.348Z,0.70
2018-12-07T02:53:06.341Z,0.40
2018-12-07T02:54:06.327Z,0.80
2018-12-07T02:55:06.373Z,0.60
2018-12-07T02:56:06.343Z,0.80
2018-12-07T02:57:06.291Z,0.60
2018-12-07T02:58:06.280Z,0.50
2018-12-07T02:59:06.271Z,0.50
2018-12-07T03:00:06.533Z,0.70
2018-12-07T03:01:06.247Z,1.10
2018-12-07T03:02:06.239Z,1.10
2018-12-07T03:03:06.224Z,0.90
2018-12-07T03:04:06.214Z,1.20
2018-12-07T03:05:06.203Z,0.90
2018-12-07T03:06:06.466Z,1.10
2018-12-07T03:07:06.182Z,0.80
2018-12-07T03:08:06.170Z,1.00
2018-12-07T03:09:06.158Z,1.40
2018-12-07T03:10:06.149Z,1.10
2018-12-07T03:11:06.135Z,1.10
2018-12-07T03:12:06.171Z,1.20
2018-12-07T03:13:06.114Z,1.00
2018-12-07T03:14:06.107Z,1.20
2018-12-07T03:15:06.096Z,1.00
2018-12-07T03:16:06.084Z,1.00
2018-12-07T03:17:06.068Z,1.00
2018-12-07T03:18:06.097Z,1.10
2018-12-07T03:19:06.050Z,1.20
2018-12-07T03:20:06.037Z,0.90
2018-12-07T03:21:06.029Z,0.90
2018-12-07T03:22:06.015Z,1.20
2018-12-07T03:23:06.046Z,1.10
2018-12-07T03:24:05.996Z,0.90
2018-12-07T03:25:05.981Z,1.20
2018-12-07T03:26:05.970Z,1.50
2018-12-07T03:27:05.960Z,0.90
2018-12-07T03:28:05.988Z,0.90
2018-12-07T03:29:05.945Z,1.00
2018-12-07T03:30:05.939Z,1.20
2018-12-07T03:31:05.934Z,1.10
2018-12-07T03:32:05.913Z,0.90
2018-12-07T03:33:05.894Z,1.10
2018-12-07T03:34:05.920Z,1.30
2018-12-07T03:35:05.870Z,1.20
2018-12-07T03:36:05.866Z,1.20
2018-12-07T03:37:05.891Z,1.20
2018-12-07T03:38:05.839Z,1.10
2018-12-07T03:39:05.826Z,1.20
2018-12-07T03:40:05.817Z,1.00
2018-12-07T03:41:05.813Z,1.20
2018-12-07T03:42:05.795Z,1.10
2018-12-07T03:43:05.823Z,1.30
2018-12-07T03:44:05.772Z,1.40
2018-12-07T03:45:05.804Z,1.40
2018-12-07T03:46:05.749Z,1.10
2018-12-07T03:47:05.739Z,1.40
2018-12-07T03:48:05.733Z,1.50
2018-12-07T03:49:05.717Z,1.60
2018-12-07T03:50:05.745Z,2.00
2018-12-07T03:51:05.695Z,1.70
2018-12-07T03:52:05.687Z,1.60
2018-12-07T03:53:05.714Z,1.50
2018-12-07T03:54:05.663Z,1.80
2018-12-07T03:55:05.656Z,1.90
2018-12-07T03:56:05.640Z,1.70
2018-12-07T03:57:05.631Z,2.00
2018-12-07T03:58:05.664Z,1.50
2018-12-07T03:59:05.612Z,1.90
2018-12-07T04:00:05.593Z,1.90
2018-12-07T04:01:05.583Z,1.70
2018-12-07T04:02:05.572Z,2.10
2018-12-07T04:03:05.559Z,2.00
2018-12-07T04:04:05.620Z,1.90
2018-12-07T04:05:05.539Z,2.00
2018-12-07T04:06:05.528Z,1.90
2018-12-07T04:07:05.519Z,1.90
2018-12-07T04:08:05.506Z,1.50
2018-12-07T04:09:05.579Z,2.00
2018-12-07T04:10:05.525Z,1.80
2018-12-07T04:11:05.487Z,1.90
2018-12-07T04:12:05.462Z,1.90
2018-12-07T04:13:05.489Z,1.90
2018-12-07T04:14:05.441Z,2.00
2018-12-07T04:15:05.473Z,1.70
2018-12-07T04:16:05.417Z,2.20
2018-12-07T04:17:05.406Z,2.20
2018-12-07T04:18:05.395Z,1.80
2018-12-07T04:19:05.383Z,2.20
2018-12-07T04:20:05.373Z,2.00
2018-12-07T04:21:05.499Z,2.20
2018-12-07T04:22:05.358Z,1.90
2018-12-07T04:23:05.338Z,2.20
2018-12-07T04:24:05.453Z,1.90
2018-12-07T04:25:05.322Z,2.10
2018-12-07T04:26:05.314Z,2.20
2018-12-07T04:27:05.340Z,2.00
2018-12-07T04:28:05.285Z,2.40
2018-12-07T04:29:05.321Z,2.40
2018-12-07T04:30:05.282Z,2.30
2018-12-07T04:31:05.250Z,2.20
2018-12-07T04:32:05.243Z,2.40
2018-12-07T04:33:05.240Z,2.40
2018-12-07T04:34:05.219Z,2.20
2018-12-07T04:35:05.254Z,2.30
2018-12-07T04:36:07.460Z,2.40
2018-12-07T04:37:05.187Z,2.40
2018-12-07T04:38:05.174Z,2.40
2018-12-07T04:39:05.162Z,2.70
2018-12-07T04:40:05.193Z,2.70
2018-12-07T04:41:05.143Z,2.30
2018-12-07T04:42:05.134Z,2.30
2018-12-07T04:43:05.119Z,2.60
2018-12-07T04:44:05.110Z,2.40
2018-12-07T04:45:05.097Z,2.70
2018-12-07T04:46:05.131Z,2.30
2018-12-07T04:47:05.073Z,2.60
2018-12-07T04:48:05.062Z,2.60
2018-12-07T04:49:05.053Z,2.70
2018-12-07T04:50:05.046Z,2.80
2018-12-07T04:51:05.032Z,2.50
2018-12-07T04:52:05.188Z,2.50
2018-12-07T04:53:05.011Z,2.90
2018-12-07T04:54:05.009Z,2.60
2018-12-07T04:55:04.985Z,2.60
2018-12-07T04:56:05.027Z,2.70
2018-12-07T04:57:04.967Z,2.80
2018-12-07T04:58:04.992Z,2.20
2018-12-07T04:59:04.944Z,2.50
2018-12-07T05:00:04.956Z,2.80
2018-12-07T05:01:04.964Z,2.90
2018-12-07T05:02:04.909Z,3.00
2018-12-07T05:03:04.908Z,2.80
2018-12-07T05:04:04.932Z,2.70
2018-12-07T05:05:04.879Z,3.20
2018-12-07T05:06:04.876Z,2.80
2018-12-07T05:07:04.893Z,3.00
2018-12-07T05:08:04.848Z,3.00
2018-12-07T05:09:04.834Z,3.10
2018-12-07T05:10:04.820Z,2.70
2018-12-07T05:11:04.853Z,3.10
2018-12-07T05:12:04.799Z,3.20
2018-12-07T05:13:04.792Z,3.20
2018-12-07T05:14:04.776Z,3.20
2018-12-07T05:15:04.768Z,3.40
2018-12-07T05:16:04.753Z,3.20
2018-12-07T05:17:04.782Z,3.50
2018-12-07T05:18:04.754Z,3.30
2018-12-07T05:19:04.720Z,3.30
2018-12-07T05:20:04.713Z,3.90
2018-12-07T05:21:04.704Z,3.40
2018-12-07T05:22:04.687Z,3.30
2018-12-07T05:23:04.716Z,3.60
2018-12-07T05:24:04.669Z,3.50
2018-12-07T05:25:04.713Z,3.70
2018-12-07T05:26:04.645Z,3.80
2018-12-07T05:27:04.630Z,3.20
2018-12-07T05:28:04.662Z,3.40
2018-12-07T05:29:04.610Z,3.70
2018-12-07T05:30:04.607Z,3.60
2018-12-07T05:31:04.671Z,3.40
2018-12-07T05:32:04.576Z,3.60
2018-12-07T05:33:04.569Z,3.90
2018-12-07T05:34:04.599Z,3.80
2018-12-07T05:35:04.543Z,3.60
2018-12-07T05:36:04.534Z,3.60
2018-12-07T05:37:04.521Z,4.00
2018-12-07T05:38:04.511Z,4.00
2018-12-07T05:39:04.539Z,4.30
2018-12-07T05:40:04.493Z,4.50
2018-12-07T05:41:04.481Z,4.50
2018-12-07T05:42:04.468Z,4.80
2018-12-07T05:43:04.455Z,4.20
2018-12-07T05:44:04.484Z,3.60
2018-12-07T05:45:04.473Z,3.80
2018-12-07T05:46:04.424Z,4.30
2018-12-07T05:47:04.411Z,4.20
2018-12-07T05:48:04.407Z,4.40
2018-12-07T05:49:04.430Z,4.40
2018-12-07T05:50:04.381Z,4.40
2018-12-07T05:51:04.372Z,4.30
2018-12-07T05:52:04.357Z,3.90
2018-12-07T05:53:04.347Z,4.50
2018-12-07T05:54:04.377Z,4.20
2018-12-07T05:55:04.362Z,4.00
2018-12-07T05:56:04.317Z,4.20
2018-12-07T05:57:04.300Z,3.80
2018-12-07T05:58:04.289Z,4.10
2018-12-07T05:59:04.279Z,4.40
2018-12-07T06:00:04.307Z,4.50
2018-12-07T06:01:04.267Z,4.20
2018-12-07T06:02:04.248Z,4.30
2018-12-07T06:03:04.236Z,4.40
2018-12-07T06:04:04.226Z,4.10
2018-12-07T06:05:04.258Z,4.00
2018-12-07T06:06:04.206Z,4.20
2018-12-07T06:07:04.218Z,4.30
2018-12-07T06:08:04.185Z,4.30
2018-12-07T06:09:04.170Z,4.10
2018-12-07T06:10:04.166Z,4.20
2018-12-07T06:11:04.188Z,4.30
2018-12-07T06:12:04.136Z,4.40
2018-12-07T06:13:04.170Z,4.10
2018-12-07T06:14:04.126Z,4.80
2018-12-07T06:15:04.105Z,4.80
2018-12-07T06:16:04.101Z,4.90
2018-12-07T06:17:04.084Z,4.50
2018-12-07T06:18:04.069Z,4.10
2018-12-07T06:19:04.102Z,3.90
2018-12-07T06:20:04.073Z,3.60
2018-12-07T06:21:04.075Z,4.00
2018-12-07T06:22:04.030Z,4.10
2018-12-07T06:23:04.067Z,4.30
2018-12-07T06:24:04.007Z,4.30
2018-12-07T06:25:03.997Z,4.30
2018-12-07T06:26:03.989Z,4.70
2018-12-07T06:27:03.971Z,4.90
2018-12-07T06:28:03.966Z,4.50
2018-12-07T06:29:03.996Z,4.70
2018-12-07T06:30:03.935Z,4.50
2018-12-07T06:31:03.969Z,4.30
2018-12-07T06:32:03.919Z,4.60
2018-12-07T06:33:03.904Z,4.30
2018-12-07T06:34:05.842Z,4.30
2018-12-07T06:35:03.888Z,3.80
2018-12-07T06:36:03.881Z,4.50
2018-12-07T06:37:03.903Z,3.50
2018-12-07T06:38:03.896Z,4.10
2018-12-07T06:39:03.842Z,4.20
2018-12-07T06:40:03.841Z,4.30
2018-12-07T06:41:03.822Z,4.40
2018-12-07T06:42:03.812Z,4.10
2018-12-07T06:43:03.794Z,3.80
2018-12-07T06:44:03.819Z,4.20
2018-12-07T06:45:03.779Z,3.60
2018-12-07T06:46:03.767Z,3.50
2018-12-07T06:47:03.754Z,3.50
2018-12-07T06:48:03.749Z,3.40
2018-12-07T06:49:03.732Z,4.20
2018-12-07T06:50:04.210Z,3.50
2018-12-07T06:51:03.707Z,3.80
2018-12-07T06:52:03.695Z,3.50
2018-12-07T06:53:03.686Z,3.60
2018-12-07T06:54:03.676Z,3.80
2018-12-07T06:55:03.669Z,3.80
2018-12-07T06:56:03.720Z,4.00
2018-12-07T06:57:03.680Z,3.70
2018-12-07T06:58:03.628Z,3.90
2018-12-07T06:59:03.700Z,3.90
2018-12-07T07:00:03.605Z,3.70
2018-12-07T07:01:03.601Z,3.50
2018-12-07T07:02:03.594Z,3.20
2018-12-07T07:03:03.579Z,3.60
2018-12-07T07:04:03.605Z,3.30
2018-12-07T07:05:03.552Z,4.00
2018-12-07T07:06:03.543Z,3.70
2018-12-07T07:07:05.223Z,3.60
2018-12-07T07:08:03.519Z,3.70
2018-12-07T07:09:03.531Z,3.80
2018-12-07T07:10:03.596Z,3.80
2018-12-07T07:11:03.483Z,4.10
2018-12-07T07:12:03.483Z,3.70
2018-12-07T07:13:03.470Z,4.10
2018-12-07T07:14:03.478Z,3.80
2018-12-07T07:15:03.484Z,4.40
2018-12-07T07:16:03.433Z,4.00
2018-12-07T07:17:03.446Z,3.80
2018-12-07T07:18:03.427Z,4.40
2018-12-07T07:19:03.406Z,3.50
2018-12-07T07:20:03.430Z,4.00
2018-12-07T07:21:03.376Z,3.60
2018-12-07T07:22:03.364Z,4.00
2018-12-07T07:23:03.365Z,3.70
2018-12-07T07:24:03.349Z,3.60
2018-12-07T07:25:03.344Z,4.10
2018-12-07T07:26:03.364Z,3.50
2018-12-07T07:27:03.331Z,3.70
2018-12-07T07:28:03.303Z,3.90
2018-12-07T07:29:03.301Z,3.70
2018-12-07T07:30:03.302Z,4.00
2018-12-07T07:31:03.343Z,4.10
2018-12-07T07:32:03.370Z,4.00
2018-12-07T07:33:03.247Z,3.40
2018-12-07T07:34:03.244Z,3.70
2018-12-07T07:35:03.229Z,3.60
2018-12-07T07:36:03.210Z,3.80
2018-12-07T07:37:03.239Z,3.10
2018-12-07T07:38:03.247Z,3.10
2018-12-07T07:39:03.189Z,3.20
2018-12-07T07:40:03.196Z,2.80
2018-12-07T07:41:03.153Z,3.50
2018-12-07T07:42:03.239Z,3.00
2018-12-07T07:43:03.154Z,3.00
2018-12-07T07:44:03.191Z,3.50
2018-12-07T07:45:03.179Z,3.60
2018-12-07T07:46:03.105Z,3.00
2018-12-07T07:47:03.095Z,3.00
2018-12-07T07:48:03.169Z,2.80
2018-12-07T07:49:03.077Z,3.30
2018-12-07T07:50:03.073Z,2.90
2018-12-07T07:51:03.047Z,3.00
2018-12-07T07:52:03.034Z,3.00
2018-12-07T07:53:03.029Z,3.30
2018-12-07T07:54:03.074Z,2.70
2018-12-07T07:55:03.015Z,3.20
2018-12-07T07:56:03.003Z,2.60
2018-12-07T07:57:03.042Z,2.70
2018-12-07T07:58:03.014Z,2.70
2018-12-07T07:59:02.964Z,2.80
2018-12-07T08:00:02.951Z,2.80
2018-12-07T08:01:02.957Z,2.90
2018-12-07T08:02:02.924Z,2.90
2018-12-07T08:03:02.920Z,2.50
2018-12-07T08:04:03.169Z,3.10
2018-12-07T08:05:02.908Z,2.80
2018-12-07T08:06:02.896Z,2.20
2018-12-07T08:07:02.871Z,3.10
2018-12-07T08:08:02.870Z,2.80
2018-12-07T08:09:02.853Z,2.80
2018-12-07T08:10:02.901Z,2.70
2018-12-07T08:11:02.827Z,2.70
2018-12-07T08:12:02.817Z,2.40
2018-12-07T08:13:02.817Z,2.30
2018-12-07T08:14:02.936Z,2.50
2018-12-07T08:15:02.790Z,2.80
2018-12-07T08:16:02.770Z,2.30
2018-12-07T08:17:02.797Z,2.60
2018-12-07T08:18:02.752Z,2.60
2018-12-07T08:19:02.735Z,2.30
2018-12-07T08:20:02.766Z,2.20
2018-12-07T08:21:02.720Z,2.30
2018-12-07T08:22:02.973Z,2.40
2018-12-07T08:23:02.756Z,2.40
2018-12-07T08:24:02.679Z,2.20
2018-12-07T08:25:02.682Z,2.30
2018-12-07T08:26:02.659Z,2.40
2018-12-07T08:27:02.649Z,2.30
2018-12-07T08:28:02.637Z,2.40
2018-12-07T08:29:02.664Z,2.30
2018-12-07T08:30:02.616Z,1.90
2018-12-07T08:31:02.608Z,2.30
2018-12-07T08:32:02.617Z,1.80
2018-12-07T08:33:02.600Z,2.10
2018-12-07T08:34:02.689Z,2.10
2018-12-07T08:35:02.558Z,2.10
2018-12-07T08:36:02.604Z,2.00
2018-12-07T08:37:02.536Z,2.30
2018-12-07T08:38:02.525Z,1.90
2018-12-07T08:39:02.515Z,1.70
2018-12-07T08:40:02.502Z,1.60
2018-12-07T08:41:02.714Z,1.80
2018-12-07T08:42:06.700Z,1.60
2018-12-07T08:43:02.468Z,1.70
2018-12-07T08:44:02.465Z,1.40
2018-12-07T08:45:02.457Z,1.80
2018-12-07T08:46:02.438Z,1.80
2018-12-07T08:47:02.477Z,1.50
2018-12-07T08:48:02.442Z,1.80
2018-12-07T08:49:02.406Z,1.50
2018-12-07T08:50:02.395Z,1.70
2018-12-07T08:51:02.384Z,2.00
2018-12-07T08:52:02.389Z,1.70
2018-12-07T08:53:02.406Z,1.50
2018-12-07T08:54:02.360Z,1.80
2018-12-07T08:55:02.340Z,1.60
2018-12-07T08:56:02.335Z,1.60
2018-12-07T08:57:02.322Z,1.90
2018-12-07T08:58:02.307Z,1.60
2018-12-07T08:59:02.337Z,1.50
2018-12-07T09:00:02.381Z,1.50
2018-12-07T09:01:02.367Z,1.40
2018-12-07T09:02:02.268Z,1.30
2018-12-07T09:03:02.326Z,1.40
2018-12-07T09:04:02.277Z,1.50
2018-12-07T09:05:02.247Z,1.50
2018-12-07T09:06:02.224Z,1.70
2018-12-07T09:07:02.450Z,1.30
2018-12-07T09:08:02.199Z,1.30
2018-12-07T09:09:02.234Z,1.40
2018-12-07T09:10:02.225Z,1.30
2018-12-07T09:11:02.165Z,1.00
2018-12-07T09:12:02.157Z,1.20
2018-12-07T09:13:02.140Z,1.20
2018-12-07T09:14:02.198Z,1.20
2018-12-07T09:15:02.140Z,1.00
2018-12-07T09:16:02.117Z,1.10
2018-12-07T09:17:02.224Z,1.20
2018-12-07T09:18:02.081Z,1.10
2018-12-07T09:19:02.105Z,0.90
2018-12-07T09:20:02.063Z,0.80
2018-12-07T09:21:02.058Z,1.10
2018-12-07T09:22:02.046Z,1.00
2018-12-07T09:23:02.070Z,1.00
2018-12-07T09:24:02.059Z,1.00
2018-12-07T09:25:02.066Z,1.00
2018-12-07T09:26:02.042Z,0.90
2018-12-07T09:27:01.984Z,0.80
2018-12-07T09:28:01.971Z,1.00
2018-12-07T09:29:01.972Z,0.70
2018-12-07T09:30:02.008Z,0.90
2018-12-07T09:31:02.004Z,0.80
2018-12-07T09:32:01.932Z,0.80
2018-12-07T09:33:01.917Z,0.80
2018-12-07T09:34:01.908Z,1.00
2018-12-07T09:35:01.902Z,0.80
2018-12-07T09:36:01.947Z,0.80
2018-12-07T09:37:01.905Z,0.70
2018-12-07T09:38:01.870Z,0.90
2018-12-07T09:39:01.863Z,0.80
2018-12-07T09:40:01.846Z,0.90
2018-12-07T09:41:01.827Z,0.70
2018-12-07T09:42:01.863Z,1.00
2018-12-07T09:43:01.824Z,1.00
2018-12-07T09:44:01.798Z,0.70
2018-12-07T09:45:01.804Z,1.00
2018-12-07T09:46:01.773Z,1.10
2018-12-07T09:47:01.789Z,0.90
2018-12-07T09:48:01.887Z,0.90
2018-12-07T09:49:01.794Z,0.90
2018-12-07T09:50:01.789Z,0.90
2018-12-07T09:51:01.898Z,1.00
2018-12-07T09:52:02.277Z,1.10
2018-12-07T09:53:01.793Z,1.00
2018-12-07T09:54:01.696Z,1.10
2018-12-07T09:55:01.680Z,1.10
2018-12-07T09:56:01.665Z,0.80
2018-12-07T09:57:01.653Z,1.00
2018-12-07T09:58:01.720Z,1.00
2018-12-07T09:59:04.081Z,0.80
2018-12-07T10:00:01.888Z,1.00
2018-12-07T10:01:02.777Z,1.00
2018-12-07T10:02:02.768Z,0.80
2018-12-07T10:03:04.307Z,0.80
2018-12-07T10:04:01.575Z,0.80
2018-12-07T10:05:01.571Z,0.80
2018-12-07T10:06:01.551Z,0.90
2018-12-07T10:07:01.592Z,0.90
2018-12-07T10:08:01.529Z,1.00
2018-12-07T10:09:01.522Z,1.00
2018-12-07T10:10:01.516Z,0.80
2018-12-07T10:11:01.499Z,0.90
2018-12-07T10:12:01.487Z,0.70
2018-12-07T10:13:07.674Z,1.00
2018-12-07T10:14:02.461Z,0.90
2018-12-07T10:15:01.453Z,0.80
2018-12-07T10:16:01.484Z,0.70
2018-12-07T10:17:01.438Z,1.00
2018-12-07T10:18:01.432Z,1.00
2018-12-07T10:19:01.408Z,0.80
2018-12-07T10:20:01.411Z,0.90
2018-12-07T10:21:01.483Z,0.90
2018-12-07T10:22:01.422Z,0.80
2018-12-07T10:23:01.402Z,0.90
2018-12-07T10:24:01.489Z,0.80
2018-12-07T10:25:01.346Z,0.70
2018-12-07T10:26:01.337Z,0.50
2018-12-07T10:27:01.329Z,0.70
2018-12-07T10:28:01.324Z,0.60
2018-12-07T10:29:01.373Z,0.70
2018-12-07T10:30:01.340Z,0.60
2018-12-07T10:31:01.353Z,0.70
2018-12-07T10:32:01.276Z,0.80
2018-12-07T10:33:01.283Z,0.90
2018-12-07T10:34:01.247Z,0.90
2018-12-07T10:35:01.255Z,0.50
2018-12-07T10:36:01.227Z,0.50
2018-12-07T10:37:01.257Z,0.40
2018-12-07T10:38:01.204Z,0.40
2018-12-07T10:39:01.308Z,0.60
2018-12-07T10:40:01.179Z,0.50
2018-12-07T10:41:01.168Z,0.40
2018-12-07T10:42:01.201Z,0.70
2018-12-07T10:43:01.149Z,0.40
2018-12-07T10:44:01.138Z,0.50
2018-12-07T10:45:01.134Z,0.50
2018-12-07T10:46:01.119Z,0.60
2018-12-07T10:47:01.189Z,0.60
2018-12-07T10:48:01.095Z,0.60
2018-12-07T10:49:01.131Z,0.50
2018-12-07T10:50:01.071Z,0.50
2018-12-07T10:51:07.777Z,0.70
2018-12-07T10:52:02.046Z,0.50
2018-12-07T10:53:01.042Z,0.50
2018-12-07T10:54:01.025Z,0.50
2018-12-07T10:55:01.069Z,0.30
2018-12-07T10:56:01.000Z,0.50
2018-12-07T10:57:00.991Z,0.40
2018-12-07T10:58:01.014Z,0.50
2018-12-07T10:59:00.977Z,0.60
2018-12-07T11:00:01.006Z,0.50
2018-12-07T11:01:00.944Z,0.40
2018-12-07T11:02:00.974Z,0.60
2018-12-07T11:03:00.920Z,0.50
2018-12-07T11:04:00.911Z,1.20
2018-12-07T11:05:00.905Z,0.50
2018-12-07T11:06:00.892Z,0.80
2018-12-07T11:07:00.894Z,0.40
2018-12-07T11:08:00.946Z,0.60
2018-12-07T11:09:00.865Z,0.50
2018-12-07T11:10:00.853Z,0.80
2018-12-07T11:11:00.839Z,0.50
2018-12-07T11:12:00.824Z,0.40
2018-12-07T11:13:00.823Z,0.40
2018-12-07T11:14:00.846Z,0.70
2018-12-07T11:15:00.794Z,0.50
2018-12-07T11:16:00.782Z,0.40
2018-12-07T11:17:00.804Z,0.40
2018-12-07T11:18:00.757Z,0.30
2018-12-07T11:19:01.029Z,0.40
2018-12-07T11:20:00.745Z,0.40
2018-12-07T11:21:00.723Z,0.50
2018-12-07T11:22:00.715Z,0.50
2018-12-07T11:23:00.706Z,0.50
2018-12-07T11:24:00.708Z,0.40
2018-12-07T11:25:00.752Z,0.40
2018-12-07T11:26:00.954Z,0.40
2018-12-07T11:27:00.681Z,0.30
2018-12-07T11:28:00.655Z,0.50
2018-12-07T11:29:00.636Z,0.30
2018-12-07T11:30:00.661Z,0.30
2018-12-07T11:31:00.611Z,0.40
2018-12-07T11:32:00.654Z,0.40
2018-12-07T11:33:00.589Z,0.40
2018-12-07T11:34:00.583Z,0.40
2018-12-07T11:35:00.620Z,0.30
2018-12-07T11:36:07.868Z,0.40
2018-12-07T11:37:01.618Z,0.20
2018-12-07T11:38:00.538Z,0.30
2018-12-07T11:39:00.526Z,0.30
2018-12-07T11:40:00.512Z,0.40
2018-12-07T11:41:00.507Z,0.30
2018-12-07T11:42:00.503Z,0.40
2018-12-07T11:43:00.739Z,0.60
2018-12-07T11:44:00.478Z,0.50
2018-12-07T11:45:00.466Z,0.50
2018-12-07T11:46:00.571Z,0.20
2018-12-07T11:47:00.438Z,0.40
2018-12-07T11:48:00.482Z,0.20
2018-12-07T11:49:00.414Z,0.30
2018-12-07T11:50:00.408Z,0.30
2018-12-07T11:51:00.405Z,0.40
2018-12-07T11:52:00.440Z,0.30
2018-12-07T11:53:00.373Z,0.30
2018-12-07T11:54:00.360Z,0.30
2018-12-07T11:55:00.359Z,0.20
2018-12-07T11:56:00.379Z,0.30
2018-12-07T11:57:00.328Z,0.40
2018-12-07T11:58:00.595Z,0.30
2018-12-07T11:59:00.313Z,0.20
2018-12-07T12:00:00.294Z,0.20
2018-12-07T12:01:00.285Z,0.20
2018-12-07T12:02:00.284Z,0.30
2018-12-07T12:03:00.261Z,0.30
2018-12-07T12:04:00.301Z,0.30
2018-12-07T12:05:00.235Z,0.30
2018-12-07T12:06:00.230Z,0.30
2018-12-07T12:07:00.218Z,0.40
2018-12-07T12:08:00.208Z,0.30
2018-12-07T12:09:00.258Z,0.50
2018-12-07T12:10:00.179Z,0.30
2018-12-07T12:11:00.218Z,0.30
2018-12-07T12:12:00.162Z,0.40
2018-12-07T12:13:00.150Z,0.50
2018-12-07T12:14:00.134Z,0.40
2018-12-07T12:15:00.126Z,0.30
2018-12-07T12:16:00.116Z,0.30
2018-12-07T12:17:00.142Z,0.20
2018-12-07T12:18:00.122Z,0.20
2018-12-07T12:19:00.167Z,0.40
2018-12-07T12:20:00.086Z,0.20
2018-12-07T12:21:00.068Z,0.40
2018-12-07T12:22:00.064Z,0.30
2018-12-07T12:23:00.040Z,0.30
2018-12-07T12:24:00.027Z,0.30
2018-12-07T12:25:00.063Z,0.40
2018-12-07T12:26:00.007Z,0.30
2018-12-07T12:26:59.990Z,0.30
2018-12-07T12:28:00.072Z,0.40
2018-12-07T12:28:59.972Z,0.30
2018-12-07T12:29:59.998Z,0.20
2018-12-07T12:30:59.950Z,0.30
2018-12-07T12:31:59.942Z,0.20
2018-12-07T12:32:59.926Z,0.30
2018-12-07T12:33:59.920Z,0.40
2018-12-07T12:34:59.915Z,0.30
2018-12-07T12:35:59.936Z,0.40
2018-12-07T12:36:59.886Z,0.30
2018-12-07T12:37:59.871Z,0.40
2018-12-07T12:38:59.859Z,0.40
2018-12-07T12:39:59.935Z,0.60
2018-12-07T12:41:00.119Z,0.30
2018-12-07T12:41:59.830Z,0.60
2018-12-07T12:42:59.822Z,0.40
2018-12-07T12:43:59.824Z,0.20
2018-12-07T12:44:59.807Z,0.40
2018-12-07T12:45:59.781Z,0.50
2018-12-07T12:46:59.811Z,0.20
2018-12-07T12:47:59.764Z,0.20
2018-12-07T12:48:59.751Z,0.60
2018-12-07T12:49:59.743Z,0.40
2018-12-07T12:50:59.734Z,0.40
2018-12-07T12:51:59.741Z,0.50
2018-12-07T12:52:59.751Z,0.40
2018-12-07T12:53:59.701Z,0.50
2018-12-07T12:54:59.687Z,0.50
2018-12-07T12:55:59.674Z,0.40
2018-12-07T12:56:59.675Z,0.40
2018-12-07T12:57:59.655Z,0.40
2018-12-07T12:58:59.683Z,0.40
2018-12-07T12:59:59.627Z,0.40
2018-12-07T13:00:59.620Z,0.30
2018-12-07T13:01:59.605Z,0.40
2018-12-07T13:02:59.597Z,0.30
2018-12-07T13:03:59.588Z,0.30
2018-12-07T13:04:59.618Z,0.20
2018-12-07T13:05:59.565Z,0.30
2018-12-07T13:06:59.547Z,0.20
2018-12-07T13:07:59.545Z,0.40
2018-12-07T13:08:59.547Z,0.40
2018-12-07T13:09:59.542Z,0.30
2018-12-07T13:10:59.550Z,0.30
2018-12-07T13:11:59.500Z,0.30
2018-12-07T13:12:59.485Z,0.30
2018-12-07T13:13:59.486Z,0.40
2018-12-07T13:14:59.521Z,0.30
2018-12-07T13:15:59.451Z,0.40
2018-12-07T13:16:59.438Z,0.20
2018-12-07T13:17:59.437Z,0.30